カラカス の空港の天気 - METARとTAF

シモン・ボリバー空港(バルガス) ( SVMI / CCS ) - ベネズエラ バルガス州、Maiquetia (カラカス近郊)
飛行場実況気象(Metar)
観測時間07/28 23:03 VET (07/29 03:03 UTC)
風向・風速東 1m/s
視程-
天気現象
なし
気温24℃
湿度94%
気圧1015hPa
METARSVMI 290303Z AUTO 09002KT NCD 24/23 Q1015
過去の天気等 Google飛行場航空写真 Wunderground天気予報

過去48時間のMETAR

飛行場予報(TAF)
発表時間: 7/28 18:00 VET (7/28 22:00 UTC)
予報対象時間: 28日20時 VET ~ 29日20時 VET
風向・風速東 1m/s
視程10km以上
全天の4割程度の雲 雲底高度 490m
28日20時 VET ~ 28日24時 VET に一時的に
風向・風速東 3m/s
視程9000m
天気現象弱い霧雨
全天の8割程度の雲 雲底高度 490m
TAF SVMI 282200Z 2900/3000 09002KT 9999 SCT016 TX32/2918Z TN21/2908Z
TEMPO 2900/2904 09005KT 9000 -DZ BKN016